createdAt,value
2023-01-28T00:00:41.307Z,1.81
2023-01-28T00:01:41.364Z,1.76
2023-01-28T00:02:42.128Z,1.63
2023-01-28T00:03:41.548Z,1.81
2023-01-28T00:04:41.266Z,1.84
2023-01-28T00:05:41.395Z,1.94
2023-01-28T00:06:41.505Z,2.04
2023-01-28T00:07:41.362Z,2.10
2023-01-28T00:08:41.081Z,1.88
2023-01-28T00:09:41.355Z,1.90
2023-01-28T00:10:41.266Z,1.94
2023-01-28T00:11:41.165Z,2.04
2023-01-28T00:12:41.245Z,2.03
2023-01-28T00:13:41.204Z,2.06
2023-01-28T00:14:42.156Z,2.21
2023-01-28T00:15:41.117Z,2.32
2023-01-28T00:16:41.269Z,2.29
2023-01-28T00:17:40.889Z,2.14
2023-01-28T00:18:41.281Z,2.09
2023-01-28T00:19:41.002Z,2.03
2023-01-28T00:20:41.270Z,2.07
2023-01-28T00:21:40.991Z,2.14
2023-01-28T00:22:41.146Z,1.98
2023-01-28T00:23:42.088Z,1.79
2023-01-28T00:24:41.193Z,1.81
2023-01-28T00:25:40.887Z,1.92
2023-01-28T00:26:41.121Z,1.98
2023-01-28T00:27:40.988Z,1.98
2023-01-28T00:28:41.217Z,2.02
2023-01-28T00:29:40.881Z,2.09
2023-01-28T00:30:40.966Z,1.99
2023-01-28T00:31:41.137Z,1.88
2023-01-28T00:32:42.866Z,1.99
2023-01-28T00:33:40.918Z,1.91
2023-01-28T00:34:40.796Z,2.03
2023-01-28T00:35:40.868Z,2.11
2023-01-28T00:36:40.786Z,2.20
2023-01-28T00:37:40.990Z,2.11
2023-01-28T00:38:41.815Z,1.94
2023-01-28T00:39:41.037Z,1.94
2023-01-28T00:40:40.700Z,1.99
2023-01-28T00:41:40.844Z,2.13
2023-01-28T00:42:40.778Z,2.09
2023-01-28T00:43:41.085Z,2.14
2023-01-28T00:44:40.760Z,2.27
2023-01-28T00:45:40.802Z,2.34
2023-01-28T00:46:40.845Z,2.40
2023-01-28T00:47:40.604Z,2.46
2023-01-28T00:48:40.917Z,2.47
2023-01-28T00:49:40.605Z,2.50
2023-01-28T00:50:40.834Z,2.61
2023-01-28T00:51:40.655Z,2.60
2023-01-28T00:52:40.714Z,2.43
2023-01-28T00:53:41.615Z,2.42
2023-01-28T00:54:40.735Z,2.45
2023-01-28T00:55:40.716Z,2.45
2023-01-28T00:56:40.730Z,2.39
2023-01-28T00:57:40.555Z,2.43
2023-01-28T00:58:40.727Z,2.43
2023-01-28T00:59:40.689Z,2.46
2023-01-28T01:00:40.795Z,2.49
2023-01-28T01:01:40.827Z,2.53
2023-01-28T01:02:42.044Z,2.50
2023-01-28T01:03:40.674Z,2.45
2023-01-28T01:04:40.397Z,2.43
2023-01-28T01:05:40.595Z,2.43
2023-01-28T01:06:41.505Z,2.40
2023-01-28T01:07:40.736Z,2.37
2023-01-28T01:08:40.640Z,2.52
2023-01-28T01:09:40.682Z,2.58
2023-01-28T01:10:40.555Z,2.58
2023-01-28T01:11:40.619Z,2.50
2023-01-28T01:12:40.411Z,2.45
2023-01-28T01:13:40.572Z,2.25
2023-01-28T01:14:40.831Z,2.24
2023-01-28T01:15:40.557Z,2.20
2023-01-28T01:16:40.487Z,2.11
2023-01-28T01:17:40.336Z,2.16
2023-01-28T01:18:40.491Z,2.20
2023-01-28T01:19:40.320Z,2.14
2023-01-28T01:20:40.480Z,2.10
2023-01-28T01:21:40.393Z,2.21
2023-01-28T01:22:40.539Z,2.35
2023-01-28T01:23:40.393Z,2.43
2023-01-28T01:24:40.631Z,2.47
2023-01-28T01:25:40.241Z,2.45
2023-01-28T01:26:40.631Z,2.43
2023-01-28T01:27:40.438Z,2.25
2023-01-28T01:28:40.470Z,2.06
2023-01-28T01:29:41.573Z,1.88
2023-01-28T01:30:40.381Z,1.90
2023-01-28T01:31:40.271Z,1.94
2023-01-28T01:32:40.403Z,1.90
2023-01-28T01:33:40.279Z,1.92
2023-01-28T01:34:40.124Z,1.94
2023-01-28T01:35:40.203Z,1.90
2023-01-28T01:36:40.286Z,1.87
2023-01-28T01:37:40.264Z,1.73
2023-01-28T01:38:40.164Z,1.81
2023-01-28T01:39:40.243Z,1.69
2023-01-28T01:40:40.125Z,1.61
2023-01-28T01:41:40.213Z,1.59
2023-01-28T01:42:40.084Z,1.72
2023-01-28T01:43:40.183Z,1.81
2023-01-28T01:44:40.316Z,1.98
2023-01-28T01:45:40.253Z,2.03
2023-01-28T01:46:40.108Z,1.95
2023-01-28T01:47:40.236Z,1.92
2023-01-28T01:48:40.078Z,2.04
2023-01-28T01:49:39.932Z,1.87
2023-01-28T01:50:40.277Z,1.67
2023-01-28T01:51:39.906Z,1.56
2023-01-28T01:52:40.143Z,1.67
2023-01-28T01:53:39.983Z,1.81
2023-01-28T01:54:40.193Z,1.99
2023-01-28T01:55:40.041Z,2.10
2023-01-28T01:56:40.287Z,2.20
2023-01-28T01:57:40.044Z,2.16
2023-01-28T01:58:40.197Z,2.25
2023-01-28T01:59:39.933Z,2.22
2023-01-28T02:00:40.016Z,2.28
2023-01-28T02:01:40.025Z,2.43
2023-01-28T02:02:40.253Z,2.55
2023-01-28T02:03:40.126Z,2.65
2023-01-28T02:04:39.875Z,2.70
2023-01-28T02:05:40.075Z,2.79
2023-01-28T02:06:39.723Z,2.91
2023-01-28T02:07:40.986Z,2.96
2023-01-28T02:08:39.904Z,2.96
2023-01-28T02:09:40.004Z,2.92
2023-01-28T02:10:39.973Z,2.94
2023-01-28T02:11:40.134Z,2.96
2023-01-28T02:12:39.909Z,3.00
2023-01-28T02:13:39.872Z,2.92
2023-01-28T02:14:39.997Z,2.96
2023-01-28T02:15:39.861Z,2.82
2023-01-28T02:16:39.772Z,2.76
2023-01-28T02:17:39.956Z,2.78
2023-01-28T02:18:39.706Z,2.79
2023-01-28T02:19:40.951Z,2.78
2023-01-28T02:20:39.843Z,2.82
2023-01-28T02:21:39.641Z,2.92
2023-01-28T02:22:39.929Z,2.92
2023-01-28T02:23:39.601Z,2.99
2023-01-28T02:24:39.910Z,2.99
2023-01-28T02:25:39.721Z,3.01
2023-01-28T02:26:39.761Z,3.04
2023-01-28T02:27:40.676Z,3.03
2023-01-28T02:28:39.840Z,3.00
2023-01-28T02:29:39.658Z,2.92
2023-01-28T02:30:39.933Z,2.89
2023-01-28T02:31:39.737Z,2.99
2023-01-28T02:32:39.875Z,2.92
2023-01-28T02:33:39.575Z,2.94
2023-01-28T02:34:39.793Z,3.09
2023-01-28T02:35:39.753Z,3.07
2023-01-28T02:36:39.495Z,2.97
2023-01-28T02:37:39.796Z,3.04
2023-01-28T02:38:39.586Z,3.09
2023-01-28T02:39:39.625Z,3.14
2023-01-28T02:40:39.594Z,3.19
2023-01-28T02:41:39.763Z,3.29
2023-01-28T02:42:39.515Z,3.33
2023-01-28T02:43:39.563Z,3.33
2023-01-28T02:44:40.818Z,3.19
2023-01-28T02:45:39.640Z,3.03
2023-01-28T02:46:39.492Z,2.74
2023-01-28T02:47:39.536Z,2.70
2023-01-28T02:48:39.600Z,2.63
2023-01-28T02:49:39.509Z,2.35
2023-01-28T02:50:39.520Z,2.28
2023-01-28T02:51:39.389Z,2.24
2023-01-28T02:52:39.569Z,2.03
2023-01-28T02:53:39.356Z,1.88
2023-01-28T02:54:39.438Z,1.87
2023-01-28T02:55:39.398Z,1.98
2023-01-28T02:56:39.628Z,1.92
2023-01-28T02:57:39.380Z,1.90
2023-01-28T02:58:39.617Z,1.87
2023-01-28T02:59:39.286Z,1.79
2023-01-28T03:00:39.413Z,1.81
2023-01-28T03:01:39.460Z,1.72
2023-01-28T03:02:39.571Z,1.63
2023-01-28T03:03:39.427Z,1.48
2023-01-28T03:04:39.396Z,1.31
2023-01-28T03:05:39.443Z,1.22
2023-01-28T03:06:40.643Z,1.33
2023-01-28T03:07:39.474Z,1.19
2023-01-28T03:08:39.391Z,1.08
2023-01-28T03:09:39.350Z,1.10
2023-01-28T03:10:39.131Z,1.13
2023-01-28T03:11:40.340Z,1.28
2023-01-28T03:12:39.182Z,1.41
2023-01-28T03:13:39.403Z,1.41
2023-01-28T03:14:39.351Z,1.41
2023-01-28T03:15:39.558Z,1.41
2023-01-28T03:16:39.240Z,1.48
2023-01-28T03:17:39.169Z,1.40
2023-01-28T03:18:39.243Z,1.49
2023-01-28T03:19:39.361Z,1.56
2023-01-28T03:20:39.251Z,1.61
2023-01-28T03:21:39.179Z,1.73
2023-01-28T03:22:39.229Z,1.72
2023-01-28T03:23:38.933Z,1.79
2023-01-28T03:24:39.273Z,1.88
2023-01-28T03:25:39.053Z,1.81
2023-01-28T03:26:39.389Z,1.84
2023-01-28T03:27:39.042Z,1.85
2023-01-28T03:28:39.257Z,1.74
2023-01-28T03:29:41.029Z,1.70
2023-01-28T03:30:39.351Z,1.81
2023-01-28T03:31:39.245Z,1.83
2023-01-28T03:32:39.135Z,1.87
2023-01-28T03:33:39.070Z,1.90
2023-01-28T03:34:39.211Z,1.94
2023-01-28T03:35:39.071Z,2.03
2023-01-28T03:36:39.120Z,2.09
2023-01-28T03:37:39.108Z,2.13
2023-01-28T03:38:39.030Z,2.14
2023-01-28T03:39:39.129Z,2.13
2023-01-28T03:40:38.951Z,2.09
2023-01-28T03:41:39.109Z,1.92
2023-01-28T03:42:38.840Z,1.67
2023-01-28T03:43:39.061Z,1.67
2023-01-28T03:44:38.929Z,1.63
2023-01-28T03:45:39.156Z,1.72
2023-01-28T03:46:38.878Z,1.77
2023-01-28T03:47:39.112Z,1.67
2023-01-28T03:48:38.984Z,1.79
2023-01-28T03:49:38.891Z,1.85
2023-01-28T03:50:38.960Z,1.66
2023-01-28T03:51:38.992Z,1.79
2023-01-28T03:52:38.856Z,2.11
2023-01-28T03:53:38.993Z,2.22
2023-01-28T03:54:39.202Z,2.14
2023-01-28T03:55:38.700Z,2.04
2023-01-28T03:56:38.880Z,1.98
2023-01-28T03:57:38.639Z,2.03
2023-01-28T03:58:38.760Z,2.09
2023-01-28T03:59:38.670Z,2.10
2023-01-28T04:00:38.950Z,1.94
2023-01-28T04:01:38.833Z,1.95
2023-01-28T04:02:38.901Z,1.88
2023-01-28T04:03:38.610Z,1.94
2023-01-28T04:04:38.773Z,1.88
2023-01-28T04:05:38.659Z,1.77
2023-01-28T04:06:38.800Z,1.83
2023-01-28T04:07:38.831Z,1.90
2023-01-28T04:08:38.729Z,2.06
2023-01-28T04:09:38.764Z,2.04
2023-01-28T04:10:38.496Z,2.07
2023-01-28T04:11:38.800Z,2.10
2023-01-28T04:12:39.576Z,2.17
2023-01-28T04:13:38.632Z,2.20
2023-01-28T04:14:38.602Z,2.25
2023-01-28T04:15:38.634Z,2.31
2023-01-28T04:16:38.504Z,2.21
2023-01-28T04:17:38.714Z,2.07
2023-01-28T04:18:38.600Z,2.10
2023-01-28T04:19:38.800Z,2.03
2023-01-28T04:20:38.552Z,1.98
2023-01-28T04:21:38.573Z,1.83
2023-01-28T04:22:38.705Z,1.85
2023-01-28T04:23:38.638Z,1.91
2023-01-28T04:24:39.528Z,1.85
2023-01-28T04:25:38.370Z,1.70
2023-01-28T04:26:38.591Z,1.76
2023-01-28T04:27:38.356Z,1.74
2023-01-28T04:28:38.571Z,1.76
2023-01-28T04:29:38.442Z,1.54
2023-01-28T04:30:38.636Z,1.37
2023-01-28T04:31:38.646Z,1.45
2023-01-28T04:32:38.601Z,1.45
2023-01-28T04:33:38.396Z,1.28
2023-01-28T04:34:38.523Z,1.37
2023-01-28T04:35:38.507Z,1.34
2023-01-28T04:36:38.589Z,1.30
2023-01-28T04:37:38.516Z,1.33
2023-01-28T04:38:38.440Z,1.30
2023-01-28T04:39:38.468Z,1.38
2023-01-28T04:40:38.517Z,1.47
2023-01-28T04:41:38.370Z,1.40
2023-01-28T04:42:38.276Z,1.48
2023-01-28T04:43:38.435Z,1.31
2023-01-28T04:44:38.116Z,1.33
2023-01-28T04:45:38.310Z,1.40
2023-01-28T04:46:38.323Z,1.41
2023-01-28T04:47:38.397Z,1.37
2023-01-28T04:48:38.216Z,1.48
2023-01-28T04:49:38.547Z,1.26
2023-01-28T04:50:38.166Z,1.16
2023-01-28T04:51:38.283Z,1.04
2023-01-28T04:52:38.174Z,1.27
2023-01-28T04:53:38.242Z,1.52
2023-01-28T04:54:38.125Z,1.47
2023-01-28T04:55:38.316Z,1.54
2023-01-28T04:56:38.206Z,1.73
2023-01-28T04:57:37.988Z,1.63
2023-01-28T04:58:38.171Z,1.38
2023-01-28T04:59:37.953Z,1.48
2023-01-28T05:00:38.384Z,1.44
2023-01-28T05:01:38.375Z,1.41
2023-01-28T05:02:38.358Z,1.52
2023-01-28T05:03:38.016Z,1.40
2023-01-28T05:04:38.273Z,1.16
2023-01-28T05:05:38.048Z,1.31
2023-01-28T05:06:38.396Z,1.05
2023-01-28T05:07:38.115Z,0.88
2023-01-28T05:08:38.277Z,1.01
2023-01-28T05:09:38.025Z,1.08
2023-01-28T05:10:38.125Z,1.05
2023-01-28T05:11:39.372Z,1.22
2023-01-28T05:12:37.985Z,0.97
2023-01-28T05:13:38.107Z,1.08
2023-01-28T05:14:37.881Z,1.27
2023-01-28T05:15:38.026Z,1.33
2023-01-28T05:16:37.897Z,1.52
2023-01-28T05:17:38.142Z,1.65
2023-01-28T05:18:37.977Z,1.54
2023-01-28T05:19:38.218Z,1.48
2023-01-28T05:20:37.967Z,1.33
2023-01-28T05:21:38.115Z,1.27
2023-01-28T05:22:37.921Z,1.37
2023-01-28T05:23:38.018Z,1.47
2023-01-28T05:24:37.905Z,1.48
2023-01-28T05:25:38.019Z,1.51
2023-01-28T05:26:37.920Z,1.65
2023-01-28T05:27:38.007Z,1.72
2023-01-28T05:28:38.185Z,1.79
2023-01-28T05:29:37.651Z,1.70
2023-01-28T05:30:38.010Z,1.51
2023-01-28T05:31:37.795Z,1.56
2023-01-28T05:32:37.941Z,1.45
2023-01-28T05:33:37.646Z,1.51
2023-01-28T05:34:37.934Z,1.55
2023-01-28T05:35:37.997Z,1.66
2023-01-28T05:36:37.807Z,1.79
2023-01-28T05:37:37.932Z,1.98
2023-01-28T05:38:37.867Z,1.79
2023-01-28T05:39:37.813Z,1.84
2023-01-28T05:40:37.932Z,1.79
2023-01-28T05:41:37.787Z,1.91
2023-01-28T05:42:37.946Z,1.95
2023-01-28T05:43:37.797Z,1.95
2023-01-28T05:44:38.005Z,1.74
2023-01-28T05:45:37.751Z,1.49
2023-01-28T05:46:37.508Z,1.55
2023-01-28T05:47:37.786Z,1.45
2023-01-28T05:48:37.707Z,1.33
2023-01-28T05:49:37.640Z,1.30
2023-01-28T05:50:37.666Z,1.30
2023-01-28T05:51:37.717Z,1.37
2023-01-28T05:52:37.677Z,1.28
2023-01-28T05:53:37.748Z,1.18
2023-01-28T05:54:37.703Z,1.16
2023-01-28T05:55:37.616Z,1.26
2023-01-28T05:56:37.570Z,1.45
2023-01-28T05:57:37.573Z,1.52
2023-01-28T05:58:37.726Z,1.52
2023-01-28T05:59:37.358Z,1.34
2023-01-28T06:00:37.586Z,1.12
2023-01-28T06:01:37.506Z,1.22
2023-01-28T06:02:37.626Z,1.33
2023-01-28T06:03:37.396Z,1.59
2023-01-28T06:04:37.567Z,1.66
2023-01-28T06:05:37.408Z,1.77
2023-01-28T06:06:37.557Z,1.67
2023-01-28T06:07:37.456Z,1.59
2023-01-28T06:08:37.583Z,1.49
2023-01-28T06:09:37.374Z,1.44
2023-01-28T06:10:37.436Z,1.23
2023-01-28T06:11:36.677Z,1.05
2023-01-28T06:12:37.761Z,0.92
2023-01-28T06:13:37.547Z,0.90
2023-01-28T06:14:37.411Z,0.84
2023-01-28T06:15:37.258Z,0.94
2023-01-28T06:16:37.289Z,1.20
2023-01-28T06:17:51.424Z,1.33
2023-01-28T06:18:37.868Z,1.45
2023-01-28T06:19:37.435Z,1.38
2023-01-28T06:20:37.406Z,1.28
2023-01-28T06:21:37.398Z,1.36
2023-01-28T06:22:37.324Z,1.13
2023-01-28T06:23:37.015Z,0.92
2023-01-28T06:24:37.383Z,0.92
2023-01-28T06:25:37.358Z,0.90
2023-01-28T06:26:37.225Z,0.88
2023-01-28T06:27:37.424Z,1.08
2023-01-28T06:28:37.537Z,1.08
2023-01-28T06:29:37.360Z,0.92
2023-01-28T06:30:37.485Z,0.90
2023-01-28T06:31:37.107Z,1.22
2023-01-28T06:32:37.099Z,1.08
2023-01-28T06:33:37.155Z,1.10
2023-01-28T06:34:37.065Z,1.20
2023-01-28T06:35:37.193Z,1.23
2023-01-28T06:36:37.089Z,1.20
2023-01-28T06:37:37.217Z,1.19
2023-01-28T06:38:37.057Z,1.26
2023-01-28T06:39:38.333Z,1.18
2023-01-28T06:40:38.395Z,1.45
2023-01-28T06:41:38.485Z,1.30
2023-01-28T06:42:37.776Z,1.18
2023-01-28T06:43:37.077Z,1.16
2023-01-28T06:44:36.968Z,1.12
2023-01-28T06:45:36.947Z,0.92
2023-01-28T06:46:37.270Z,0.95
2023-01-28T06:47:36.627Z,0.90
2023-01-28T06:48:37.226Z,1.04
2023-01-28T06:49:36.905Z,1.02
2023-01-28T06:50:36.995Z,0.82
2023-01-28T06:51:36.885Z,0.95
2023-01-28T06:52:37.028Z,0.79
2023-01-28T06:53:37.276Z,0.84
2023-01-28T06:54:36.987Z,0.83
2023-01-28T06:55:37.146Z,0.73
2023-01-28T06:56:37.011Z,0.70
2023-01-28T06:57:36.907Z,0.76
2023-01-28T06:58:37.085Z,0.82
2023-01-28T06:59:36.845Z,0.84
2023-01-28T07:00:36.826Z,1.02
2023-01-28T07:01:37.004Z,1.02
2023-01-28T07:02:36.861Z,1.23
2023-01-28T07:03:38.929Z,1.28
2023-01-28T07:04:36.701Z,1.20
2023-01-28T07:05:36.911Z,1.18
2023-01-28T07:06:36.695Z,1.04
2023-01-28T07:07:37.389Z,1.23
2023-01-28T07:08:37.656Z,1.30
2023-01-28T07:09:36.825Z,1.47
2023-01-28T07:10:37.635Z,1.38
2023-01-28T07:11:37.305Z,1.26
2023-01-28T07:12:36.677Z,1.44
2023-01-28T07:13:36.864Z,1.55
2023-01-28T07:14:36.707Z,1.48
2023-01-28T07:15:36.506Z,1.54
2023-01-28T07:16:36.725Z,1.34
2023-01-28T07:17:36.527Z,1.27
2023-01-28T07:18:36.817Z,1.22
2023-01-28T07:19:36.566Z,1.34
2023-01-28T07:20:36.676Z,1.49
2023-01-28T07:21:36.756Z,1.33
2023-01-28T07:22:36.885Z,1.30
2023-01-28T07:23:36.696Z,1.40
2023-01-28T07:24:36.713Z,1.47
2023-01-28T07:25:35.906Z,1.45
2023-01-28T07:26:36.629Z,1.63
2023-01-28T07:27:36.571Z,1.99
2023-01-28T07:28:36.628Z,2.04
2023-01-28T07:29:37.356Z,1.94
2023-01-28T07:30:36.786Z,2.03
2023-01-28T07:31:36.821Z,2.07
2023-01-28T07:32:36.675Z,2.07
2023-01-28T07:33:36.566Z,2.27
2023-01-28T07:34:36.877Z,2.27
2023-01-28T07:35:39.751Z,2.04
2023-01-28T07:36:36.808Z,1.91
2023-01-28T07:37:36.816Z,2.02
2023-01-28T07:38:36.679Z,1.83
2023-01-28T07:39:36.960Z,1.79
2023-01-28T07:40:36.961Z,1.52
2023-01-28T07:41:38.925Z,1.59
2023-01-28T07:42:38.783Z,1.48
2023-01-28T07:43:36.859Z,1.37
2023-01-28T07:44:36.799Z,1.33
2023-01-28T07:45:36.796Z,1.44
2023-01-28T07:46:36.798Z,1.56
2023-01-28T07:47:36.723Z,1.81
2023-01-28T07:48:36.699Z,1.76
2023-01-28T07:49:36.738Z,1.63
2023-01-28T07:50:36.662Z,1.59
2023-01-28T07:51:36.638Z,1.72
2023-01-28T07:52:36.819Z,1.63
2023-01-28T07:53:36.519Z,1.54
2023-01-28T07:54:36.886Z,1.84
2023-01-28T07:55:36.539Z,1.83
2023-01-28T07:56:36.740Z,1.41
2023-01-28T07:57:36.599Z,1.47
2023-01-28T07:58:36.719Z,1.55
2023-01-28T07:59:36.829Z,1.41
2023-01-28T08:00:36.698Z,1.49
2023-01-28T08:01:36.762Z,1.99
2023-01-28T08:02:36.461Z,2.27
2023-01-28T08:03:36.560Z,2.21
2023-01-28T08:04:39.750Z,2.29
2023-01-28T08:05:36.521Z,2.20
2023-01-28T08:06:36.513Z,2.20
2023-01-28T08:07:36.659Z,1.76
2023-01-28T08:08:36.379Z,1.67
2023-01-28T08:09:36.760Z,1.77
2023-01-28T08:10:36.799Z,1.90
2023-01-28T08:11:36.621Z,2.03
2023-01-28T08:12:36.338Z,1.84
2023-01-28T08:13:36.622Z,1.95
2023-01-28T08:14:36.338Z,1.88
2023-01-28T08:15:36.712Z,1.83
2023-01-28T08:16:36.478Z,1.94
2023-01-28T08:17:36.322Z,2.03
2023-01-28T08:18:36.487Z,1.87
2023-01-28T08:19:36.327Z,1.77
2023-01-28T08:20:38.285Z,1.65
2023-01-28T08:21:36.337Z,1.51
2023-01-28T08:22:36.539Z,1.72
2023-01-28T08:23:36.373Z,1.90
2023-01-28T08:24:36.498Z,1.76
2023-01-28T08:25:36.445Z,1.73
2023-01-28T08:26:36.425Z,1.76
2023-01-28T08:27:36.205Z,1.91
2023-01-28T08:28:36.297Z,1.85
2023-01-28T08:29:36.358Z,2.11
2023-01-28T08:30:36.436Z,2.29
2023-01-28T08:31:36.528Z,2.47
2023-01-28T08:32:36.420Z,2.24
2023-01-28T08:33:36.658Z,2.13
2023-01-28T08:34:36.137Z,2.09
2023-01-28T08:35:36.205Z,2.22
2023-01-28T08:36:38.165Z,2.39
2023-01-28T08:37:37.918Z,2.35
2023-01-28T08:38:36.137Z,2.21
2023-01-28T08:39:36.199Z,2.16
2023-01-28T08:40:36.140Z,2.25
2023-01-28T08:41:36.299Z,2.10
2023-01-28T08:42:36.263Z,1.88
2023-01-28T08:43:36.192Z,2.06
2023-01-28T08:44:36.185Z,2.14
2023-01-28T08:45:36.300Z,2.06
2023-01-28T08:46:36.187Z,2.14
2023-01-28T08:47:37.901Z,2.43
2023-01-28T08:48:36.038Z,2.39
2023-01-28T08:49:36.058Z,2.22
2023-01-28T08:50:36.047Z,2.28
2023-01-28T08:51:36.003Z,2.28
2023-01-28T08:52:36.319Z,2.39
2023-01-28T08:53:35.900Z,2.64
2023-01-28T08:54:36.418Z,2.46
2023-01-28T08:55:35.615Z,2.45
2023-01-28T08:56:35.748Z,2.35
2023-01-28T08:57:35.746Z,2.27
2023-01-28T08:58:35.820Z,2.29
2023-01-28T08:59:35.647Z,2.35
2023-01-28T09:00:35.748Z,2.32
2023-01-28T09:01:34.914Z,2.35
2023-01-28T09:02:36.365Z,2.43
2023-01-28T09:03:35.834Z,2.57
2023-01-28T09:04:35.529Z,2.68
2023-01-28T09:05:35.612Z,3.00
2023-01-28T09:06:35.447Z,2.78
2023-01-28T09:07:35.648Z,2.73
2023-01-28T09:08:35.516Z,2.79
2023-01-28T09:09:35.596Z,2.78
2023-01-28T09:10:35.515Z,2.96
2023-01-28T09:11:35.596Z,2.88
2023-01-28T09:12:35.399Z,2.92
2023-01-28T09:13:35.735Z,2.96
2023-01-28T09:14:35.495Z,2.94
2023-01-28T09:15:35.709Z,2.91
2023-01-28T09:16:35.416Z,2.94
2023-01-28T09:17:35.597Z,2.94
2023-01-28T09:18:35.526Z,2.89
2023-01-28T09:19:35.636Z,2.94
2023-01-28T09:20:35.507Z,2.86
2023-01-28T09:21:35.316Z,2.83
2023-01-28T09:22:35.466Z,2.83
2023-01-28T09:23:35.371Z,2.89
2023-01-28T09:24:38.585Z,2.97
2023-01-28T09:25:35.295Z,3.10
2023-01-28T09:26:35.566Z,3.29
2023-01-28T09:27:35.305Z,3.47
2023-01-28T09:28:35.476Z,3.48
2023-01-28T09:29:35.270Z,3.40
2023-01-28T09:30:37.522Z,3.48
2023-01-28T09:31:35.319Z,3.62
2023-01-28T09:32:35.762Z,3.77
2023-01-28T09:33:35.290Z,3.79
2023-01-28T09:34:35.448Z,3.83
2023-01-28T09:35:35.378Z,3.76
2023-01-28T09:36:35.316Z,3.76
2023-01-28T09:37:35.449Z,3.86
2023-01-28T09:38:35.113Z,3.95
2023-01-28T09:39:35.354Z,4.00
2023-01-28T09:40:35.131Z,3.74
2023-01-28T09:41:35.365Z,3.83
2023-01-28T09:42:35.225Z,3.62
2023-01-28T09:43:35.795Z,3.61
2023-01-28T09:44:35.254Z,3.46
2023-01-28T09:45:35.236Z,3.51
2023-01-28T09:46:35.195Z,3.35
2023-01-28T09:47:35.226Z,3.33
2023-01-28T09:48:35.120Z,3.22
2023-01-28T09:49:35.358Z,3.17
2023-01-28T09:50:35.185Z,3.21
2023-01-28T09:51:35.008Z,3.24
2023-01-28T09:52:35.163Z,3.33
2023-01-28T09:53:35.013Z,3.35
2023-01-28T09:54:35.215Z,3.25
2023-01-28T09:55:35.012Z,3.33
2023-01-28T09:56:35.088Z,3.25
2023-01-28T09:57:35.035Z,2.99
2023-01-28T09:58:35.098Z,2.91
2023-01-28T09:59:36.335Z,2.91
2023-01-28T10:00:35.107Z,2.86
2023-01-28T10:01:35.279Z,2.94
2023-01-28T10:02:35.375Z,3.01
2023-01-28T10:03:34.996Z,3.07
2023-01-28T10:04:35.130Z,3.29
2023-01-28T10:05:35.134Z,3.29
2023-01-28T10:06:35.038Z,3.37
2023-01-28T10:07:35.174Z,3.52
2023-01-28T10:08:34.926Z,3.41
2023-01-28T10:09:34.889Z,3.40
2023-01-28T10:10:34.885Z,3.68
2023-01-28T10:11:34.981Z,3.77
2023-01-28T10:12:34.817Z,4.08
2023-01-28T10:13:34.983Z,4.16
2023-01-28T10:14:36.249Z,4.34
2023-01-28T10:15:35.254Z,4.30
2023-01-28T10:16:34.809Z,4.45
2023-01-28T10:17:35.196Z,4.38
2023-01-28T10:18:34.789Z,4.26
2023-01-28T10:19:35.014Z,4.41
2023-01-28T10:20:35.152Z,4.56
2023-01-28T10:21:34.965Z,4.59
2023-01-28T10:22:34.836Z,4.56
2023-01-28T10:23:34.060Z,4.48
2023-01-28T10:24:34.966Z,4.43
2023-01-28T10:27:10.598Z,4.26
2023-01-28T10:28:10.468Z,4.45
2023-01-28T10:29:10.602Z,4.40
2023-01-28T10:30:10.469Z,4.41
2023-01-28T10:31:10.716Z,4.46
2023-01-28T10:32:10.770Z,4.41
2023-01-28T10:33:10.578Z,4.58
2023-01-28T10:34:10.540Z,4.76
2023-01-28T10:39:29.155Z,5.21
2023-01-28T10:59:09.525Z,4.99
2023-01-28T11:00:09.195Z,5.01
2023-01-28T11:01:09.451Z,5.03
2023-01-28T11:10:14.309Z,4.71
2023-01-28T11:11:14.209Z,4.79
2023-01-28T11:21:03.291Z,4.70
2023-01-28T11:22:02.922Z,4.59
2023-01-28T11:23:02.616Z,4.45
2023-01-28T11:24:09.317Z,4.46
2023-01-28T11:25:03.039Z,4.52
2023-01-28T11:26:02.782Z,4.55
2023-01-28T11:27:02.794Z,4.59
2023-01-28T11:28:02.987Z,4.63
2023-01-28T11:29:02.954Z,4.59
2023-01-28T11:30:02.715Z,4.55
2023-01-28T11:31:03.229Z,4.53
2023-01-28T11:32:24.514Z,4.45
2023-01-28T11:33:04.224Z,4.48
2023-01-28T11:34:24.215Z,4.58
2023-01-28T11:35:02.707Z,4.61
2023-01-28T11:36:24.214Z,4.63
2023-01-28T11:37:02.699Z,4.53
2023-01-28T11:38:24.533Z,4.52
2023-01-28T11:39:01.871Z,4.48
2023-01-28T11:40:25.169Z,4.52
2023-01-28T11:41:01.863Z,4.52
2023-01-28T11:42:24.067Z,4.31
2023-01-28T11:43:02.597Z,4.27
2023-01-28T11:44:02.483Z,4.28
2023-01-28T11:45:03.532Z,4.34
2023-01-28T11:46:05.227Z,4.13
2023-01-28T11:47:02.352Z,4.12
2023-01-28T11:48:03.216Z,4.09
2023-01-28T11:54:27.323Z,3.58
2023-01-28T11:55:49.304Z,3.56
2023-01-28T11:56:28.925Z,3.55
2023-01-28T11:57:49.584Z,3.72
2023-01-28T11:58:27.738Z,3.64
2023-01-28T11:59:49.641Z,3.41
2023-01-28T12:00:28.037Z,3.51
2023-01-28T12:01:49.507Z,3.74
2023-01-28T12:02:26.989Z,3.88
2023-01-28T12:03:49.313Z,3.70
2023-01-28T12:04:27.822Z,3.91
2023-01-28T12:05:50.138Z,3.95
2023-01-28T12:06:49.384Z,3.86
2023-01-28T12:07:49.265Z,3.72
2023-01-28T12:08:49.105Z,3.76
2023-01-28T12:09:49.315Z,3.76
2023-01-28T12:10:50.187Z,3.64
2023-01-28T12:11:49.226Z,3.56
2023-01-28T12:12:49.116Z,3.36
2023-01-28T12:13:49.234Z,3.40
2023-01-28T12:14:49.073Z,3.35
2023-01-28T12:15:49.761Z,3.43
2023-01-28T12:16:49.304Z,3.48
2023-01-28T12:17:49.169Z,3.44
2023-01-28T12:18:48.793Z,3.35
2023-01-28T12:19:48.676Z,3.33
